Pan Freesia — V7SB5 — position and weather

sailwx.info

Track history (hours):
 
Tides and Currents Weather Stations Pressure Air Temp Water Temp Dewpoint Dewpoint Depression Visibility Wind Speed Wind Dir Waves Ship Positions

Pan Freesia

Last reported at 2016-Jun-01 12:30 UTC. Time now 2016-Jun-24 23:57 UTC.
Position S 32°37' E 152°54'.
Warning: this ship's position is 23 days out of date.

Length 292 m; draft 15.5 m.

Type: Cargo ship. MMSI: 538003616.

Date/timePositionNaut miles runAvg speedWind from/ knotsBaromVisibWave heightAir tempDewpointWater temp
2016-Jun-01 12:30S 32°37' E 152°54'9 9.1
2016-Jun-01 11:34S 32°41' E 152°45'1110.8
2016-Jun-01 10:34S 32°45' E 152°33'1110.6
2016-Jun-01 09:33S 32°50' E 152°22'1110.6
2016-Jun-01 08:34S 32°55' E 152°11'1110.8
2016-Jun-01 07:33S 32°57' E 151°59'9 9.1
2016-Jun-01 06:34S 32°55' E 151°48'2 1.0
2016-Jun-01 04:19S 32°53' E 151°46'0 0.0
2016-Jun-01 03:31S 32°53' E 151°46'0 0.0
2016-Jun-01 02:31S 32°53' E 151°46'0 0.0
2016-Jun-01 01:31S 32°53' E 151°46'0 0.0
2016-Jun-01 00:28S 32°53' E 151°46'0 0.0
2016-May-31 23:31S 32°53' E 151°46'0 0.0
2016-May-31 22:19S 32°53' E 151°46'0 0.0
2016-May-30 22:31S 32°53' E 151°46'2 2.2
2016-May-30 21:33S 32°55' E 151°48'6 6.1
2016-May-30 20:33S 32°60' E 151°52'11 0.5
2016-May-30 00:04S 33°08' E 151°44'0 0.2
2016-May-29 23:32S 33°08' E 151°44'1 0.9
2016-May-29 22:33S 33°07' E 151°45'7 7.0
2016-May-29 21:30S 33°03' E 151°52'1111.7
2016-May-29 20:33S 32°57' E 152°02'1413.8
2016-May-29 19:33S 32°51' E 152°18'1413.8
2016-May-29 18:33S 32°46' E 152°33'1413.6
2016-May-29 17:33S 32°41' E 152°48'  
Track history (hours):
 
Tides and Currents Weather Stations Pressure Air Temp Water Temp Dewpoint Dewpoint Depression Visibility Wind Speed Wind Dir Waves Ship Positions

Pan Freesia

Last reported at 2016-Jun-01 12:30 UTC. Time now 2016-Jun-24 23:57 UTC.
Position S 32°37' E 152°54'.
Warning: this ship's position is 23 days out of date.

Length 292 m; draft 15.5 m.

Type: Cargo ship. MMSI: 538003616.

Date/timePositionNaut miles runAvg speedWind from/ knotsBaromVisibWave heightAir tempDewpointWater temp
2016-Jun-01 12:30S 32°37' E 152°54'9 9.1
2016-Jun-01 11:34S 32°41' E 152°45'1110.8
2016-Jun-01 10:34S 32°45' E 152°33'1110.6
2016-Jun-01 09:33S 32°50' E 152°22'1110.6
2016-Jun-01 08:34S 32°55' E 152°11'1110.8
2016-Jun-01 07:33S 32°57' E 151°59'9 9.1
2016-Jun-01 06:34S 32°55' E 151°48'2 1.0
2016-Jun-01 04:19S 32°53' E 151°46'0 0.0
2016-Jun-01 03:31S 32°53' E 151°46'0 0.0
2016-Jun-01 02:31S 32°53' E 151°46'0 0.0
2016-Jun-01 01:31S 32°53' E 151°46'0 0.0
2016-Jun-01 00:28S 32°53' E 151°46'0 0.0
2016-May-31 23:31S 32°53' E 151°46'0 0.0
2016-May-31 22:19S 32°53' E 151°46'0 0.0
2016-May-30 22:31S 32°53' E 151°46'2 2.2
2016-May-30 21:33S 32°55' E 151°48'6 6.1
2016-May-30 20:33S 32°60' E 151°52'11 0.5
2016-May-30 00:04S 33°08' E 151°44'0 0.2
2016-May-29 23:32S 33°08' E 151°44'1 0.9
2016-May-29 22:33S 33°07' E 151°45'7 7.0
2016-May-29 21:30S 33°03' E 151°52'1111.7
2016-May-29 20:33S 32°57' E 152°02'1413.8
2016-May-29 19:33S 32°51' E 152°18'1413.8
2016-May-29 18:33S 32°46' E 152°33'1413.6
2016-May-29 17:33S 32°41' E 152°48'  

Dump ship's entire track history